sensor_id;sensor_type;location;lat;lon;timestamp;temperature;humidity
40123;DHT22;25832;45.490;4.912;2022-09-14T00:02:02;21.60;99.90
40123;DHT22;25832;45.490;4.912;2022-09-14T00:04:28;21.60;99.90
40123;DHT22;25832;45.490;4.912;2022-09-14T00:06:54;21.60;99.90
40123;DHT22;25832;45.490;4.912;2022-09-14T00:09:22;21.60;99.90
40123;DHT22;25832;45.490;4.912;2022-09-14T00:11:48;21.60;99.90
40123;DHT22;25832;45.490;4.912;2022-09-14T00:14:15;21.60;99.90
40123;DHT22;25832;45.490;4.912;2022-09-14T00:16:41;21.60;99.90
40123;DHT22;25832;45.490;4.912;2022-09-14T00:19:18;21.60;99.90
40123;DHT22;25832;45.490;4.912;2022-09-14T00:21:44;21.60;99.90
40123;DHT22;25832;45.490;4.912;2022-09-14T00:24:10;21.60;99.90
40123;DHT22;25832;45.490;4.912;2022-09-14T00:26:36;21.60;99.90
40123;DHT22;25832;45.490;4.912;2022-09-14T00:29:03;21.70;99.90
40123;DHT22;25832;45.490;4.912;2022-09-14T00:31:34;21.70;99.90
40123;DHT22;25832;45.490;4.912;2022-09-14T00:34:01;21.70;99.90
40123;DHT22;25832;45.490;4.912;2022-09-14T00:36:29;21.80;99.90
40123;DHT22;25832;45.490;4.912;2022-09-14T00:38:55;21.80;99.90
40123;DHT22;25832;45.490;4.912;2022-09-14T00:41:24;21.90;99.90
40123;DHT22;25832;45.490;4.912;2022-09-14T00:46:40;22.00;99.90
40123;DHT22;25832;45.490;4.912;2022-09-14T00:49:09;22.10;99.90
40123;DHT22;25832;45.490;4.912;2022-09-14T00:51:38;22.10;99.90
40123;DHT22;25832;45.490;4.912;2022-09-14T00:54:05;22.20;99.90
40123;DHT22;25832;45.490;4.912;2022-09-14T00:56:32;22.30;99.90
40123;DHT22;25832;45.490;4.912;2022-09-14T00:58:59;22.30;99.90
40123;DHT22;25832;45.490;4.912;2022-09-14T01:01:27;22.40;99.90
40123;DHT22;25832;45.490;4.912;2022-09-14T01:03:52;22.40;99.90
40123;DHT22;25832;45.490;4.912;2022-09-14T01:09:20;22.30;99.90
40123;DHT22;25832;45.490;4.912;2022-09-14T01:22:47;22.30;99.90
40123;DHT22;25832;45.490;4.912;2022-09-14T01:27:59;22.20;99.90
40123;DHT22;25832;45.490;4.912;2022-09-14T01:30:27;22.30;99.90
40123;DHT22;25832;45.490;4.912;2022-09-14T01:33:06;22.30;99.90
40123;DHT22;25832;45.490;4.912;2022-09-14T01:35:46;22.20;99.90
40123;DHT22;25832;45.490;4.912;2022-09-14T01:38:23;22.20;99.90
40123;DHT22;25832;45.490;4.912;2022-09-14T01:40:51;22.20;99.90
40123;DHT22;25832;45.490;4.912;2022-09-14T01:45:49;22.20;99.90
40123;DHT22;25832;45.490;4.912;2022-09-14T01:48:19;22.20;99.90
40123;DHT22;25832;45.490;4.912;2022-09-14T01:50:47;22.20;99.90
40123;DHT22;25832;45.490;4.912;2022-09-14T01:58:38;22.10;99.90
40123;DHT22;25832;45.490;4.912;2022-09-14T02:01:08;22.20;99.90
40123;DHT22;25832;45.490;4.912;2022-09-14T02:03:45;22.10;99.90
40123;DHT22;25832;45.490;4.912;2022-09-14T02:06:58;22.10;99.90
40123;DHT22;25832;45.490;4.912;2022-09-14T02:09:07;22.10;99.90
40123;DHT22;25832;45.490;4.912;2022-09-14T02:11:34;22.10;99.90
40123;DHT22;25832;45.490;4.912;2022-09-14T02:14:00;22.10;99.90
40123;DHT22;25832;45.490;4.912;2022-09-14T02:16:26;22.10;99.90
40123;DHT22;25832;45.490;4.912;2022-09-14T02:18:52;22.20;99.90
40123;DHT22;25832;45.490;4.912;2022-09-14T02:21:21;22.20;99.90
40123;DHT22;25832;45.490;4.912;2022-09-14T02:23:49;22.20;99.90
40123;DHT22;25832;45.490;4.912;2022-09-14T02:26:15;22.20;99.90
40123;DHT22;25832;45.490;4.912;2022-09-14T02:28:41;22.30;99.90
40123;DHT22;25832;45.490;4.912;2022-09-14T02:39:17;22.50;99.90
40123;DHT22;25832;45.490;4.912;2022-09-14T02:47:02;22.50;99.90
40123;DHT22;25832;45.490;4.912;2022-09-14T02:52:05;22.40;99.90
40123;DHT22;25832;45.490;4.912;2022-09-14T02:54:38;22.40;99.90
40123;DHT22;25832;45.490;4.912;2022-09-14T02:57:06;22.30;99.90
40123;DHT22;25832;45.490;4.912;2022-09-14T02:59:31;22.20;99.90
40123;DHT22;25832;45.490;4.912;2022-09-14T03:01:58;22.20;99.90
40123;DHT22;25832;45.490;4.912;2022-09-14T03:04:25;22.20;99.90
40123;DHT22;25832;45.490;4.912;2022-09-14T03:06:51;22.20;99.90
40123;DHT22;25832;45.490;4.912;2022-09-14T03:09:16;22.10;99.90
40123;DHT22;25832;45.490;4.912;2022-09-14T03:11:42;22.10;99.90
40123;DHT22;25832;45.490;4.912;2022-09-14T03:14:09;22.10;99.90
40123;DHT22;25832;45.490;4.912;2022-09-14T03:16:37;22.10;99.90
40123;DHT22;25832;45.490;4.912;2022-09-14T03:19:03;22.10;99.90
40123;DHT22;25832;45.490;4.912;2022-09-14T03:21:30;22.10;99.90
40123;DHT22;25832;45.490;4.912;2022-09-14T03:23:57;22.10;99.90
40123;DHT22;25832;45.490;4.912;2022-09-14T03:26:24;22.10;99.90
40123;DHT22;25832;45.490;4.912;2022-09-14T03:28:55;22.10;99.90
40123;DHT22;25832;45.490;4.912;2022-09-14T03:31:21;22.00;99.90
40123;DHT22;25832;45.490;4.912;2022-09-14T03:33:54;22.00;99.90
40123;DHT22;25832;45.490;4.912;2022-09-14T03:36:23;21.90;99.90
40123;DHT22;25832;45.490;4.912;2022-09-14T03:38:50;21.90;99.90
40123;DHT22;25832;45.490;4.912;2022-09-14T03:41:17;21.80;99.90
40123;DHT22;25832;45.490;4.912;2022-09-14T03:43:44;21.70;99.90
40123;DHT22;25832;45.490;4.912;2022-09-14T03:46:12;21.70;99.90
40123;DHT22;25832;45.490;4.912;2022-09-14T03:48:39;21.60;99.90
40123;DHT22;25832;45.490;4.912;2022-09-14T03:51:06;21.60;99.90
40123;DHT22;25832;45.490;4.912;2022-09-14T03:53:33;21.50;99.90
40123;DHT22;25832;45.490;4.912;2022-09-14T03:55:59;21.50;99.90
40123;DHT22;25832;45.490;4.912;2022-09-14T03:58:24;21.50;99.90
40123;DHT22;25832;45.490;4.912;2022-09-14T04:00:50;21.50;99.90
40123;DHT22;25832;45.490;4.912;2022-09-14T04:03:16;21.60;99.90
40123;DHT22;25832;45.490;4.912;2022-09-14T04:05:42;21.60;99.90
40123;DHT22;25832;45.490;4.912;2022-09-14T04:08:10;21.60;99.90
40123;DHT22;25832;45.490;4.912;2022-09-14T04:10:38;21.60;99.90
40123;DHT22;25832;45.490;4.912;2022-09-14T04:13:03;21.60;99.90
40123;DHT22;25832;45.490;4.912;2022-09-14T04:15:29;21.60;99.90
40123;DHT22;25832;45.490;4.912;2022-09-14T04:17:55;21.60;99.90
40123;DHT22;25832;45.490;4.912;2022-09-14T04:20:20;21.70;99.90
40123;DHT22;25832;45.490;4.912;2022-09-14T04:22:46;21.70;99.90
40123;DHT22;25832;45.490;4.912;2022-09-14T04:25:11;21.70;99.90
40123;DHT22;25832;45.490;4.912;2022-09-14T04:27:37;21.70;99.90
40123;DHT22;25832;45.490;4.912;2022-09-14T04:30:04;21.70;99.90
40123;DHT22;25832;45.490;4.912;2022-09-14T04:32:30;21.70;99.90
40123;DHT22;25832;45.490;4.912;2022-09-14T04:34:56;21.70;99.90
40123;DHT22;25832;45.490;4.912;2022-09-14T04:37:22;21.70;99.90
40123;DHT22;25832;45.490;4.912;2022-09-14T04:39:47;21.70;99.90
40123;DHT22;25832;45.490;4.912;2022-09-14T04:42:13;21.70;99.90
40123;DHT22;25832;45.490;4.912;2022-09-14T04:44:39;21.70;99.90
40123;DHT22;25832;45.490;4.912;2022-09-14T04:47:05;21.70;99.90
40123;DHT22;25832;45.490;4.912;2022-09-14T04:49:30;21.70;99.90
40123;DHT22;25832;45.490;4.912;2022-09-14T04:51:56;21.70;99.90
40123;DHT22;25832;45.490;4.912;2022-09-14T04:54:21;21.60;99.90
40123;DHT22;25832;45.490;4.912;2022-09-14T04:56:47;21.60;99.90
40123;DHT22;25832;45.490;4.912;2022-09-14T04:59:13;21.60;99.90
40123;DHT22;25832;45.490;4.912;2022-09-14T05:01:42;21.60;99.90
40123;DHT22;25832;45.490;4.912;2022-09-14T05:04:09;21.70;99.90
40123;DHT22;25832;45.490;4.912;2022-09-14T05:06:37;21.70;99.90
40123;DHT22;25832;45.490;4.912;2022-09-14T05:09:06;21.70;99.90
40123;DHT22;25832;45.490;4.912;2022-09-14T05:11:33;21.70;99.90
40123;DHT22;25832;45.490;4.912;2022-09-14T05:14:00;21.70;99.90
40123;DHT22;25832;45.490;4.912;2022-09-14T05:16:28;21.70;99.90
40123;DHT22;25832;45.490;4.912;2022-09-14T05:18:56;21.70;99.90
40123;DHT22;25832;45.490;4.912;2022-09-14T05:21:23;21.70;99.90
40123;DHT22;25832;45.490;4.912;2022-09-14T05:23:57;21.70;99.90
40123;DHT22;25832;45.490;4.912;2022-09-14T05:26:24;21.70;99.90
40123;DHT22;25832;45.490;4.912;2022-09-14T05:28:52;21.60;99.90
40123;DHT22;25832;45.490;4.912;2022-09-14T05:31:19;21.60;99.90
40123;DHT22;25832;45.490;4.912;2022-09-14T05:33:45;21.60;99.90
40123;DHT22;25832;45.490;4.912;2022-09-14T05:36:10;21.60;99.90
40123;DHT22;25832;45.490;4.912;2022-09-14T05:38:37;21.50;99.90
40123;DHT22;25832;45.490;4.912;2022-09-14T05:41:05;21.50;99.90
40123;DHT22;25832;45.490;4.912;2022-09-14T05:43:31;21.40;99.90
40123;DHT22;25832;45.490;4.912;2022-09-14T05:46:02;21.40;99.90
40123;DHT22;25832;45.490;4.912;2022-09-14T05:48:34;21.30;99.90
40123;DHT22;25832;45.490;4.912;2022-09-14T05:51:02;21.30;99.90
40123;DHT22;25832;45.490;4.912;2022-09-14T05:53:28;21.20;99.90
40123;DHT22;25832;45.490;4.912;2022-09-14T05:56:10;21.10;99.90
40123;DHT22;25832;45.490;4.912;2022-09-14T05:58:37;21.00;99.90
40123;DHT22;25832;45.490;4.912;2022-09-14T06:01:12;21.00;99.90
40123;DHT22;25832;45.490;4.912;2022-09-14T06:03:39;20.90;99.90
40123;DHT22;25832;45.490;4.912;2022-09-14T06:06:06;20.80;99.90
40123;DHT22;25832;45.490;4.912;2022-09-14T06:08:32;20.70;99.90
40123;DHT22;25832;45.490;4.912;2022-09-14T06:11:03;20.60;99.90
40123;DHT22;25832;45.490;4.912;2022-09-14T06:13:29;20.50;99.90
40123;DHT22;25832;45.490;4.912;2022-09-14T06:15:54;20.40;99.90
40123;DHT22;25832;45.490;4.912;2022-09-14T06:18:20;20.40;99.90
40123;DHT22;25832;45.490;4.912;2022-09-14T06:20:50;20.40;99.90
40123;DHT22;25832;45.490;4.912;2022-09-14T06:23:17;20.40;99.90
40123;DHT22;25832;45.490;4.912;2022-09-14T06:25:43;20.30;99.90
40123;DHT22;25832;45.490;4.912;2022-09-14T06:28:09;20.30;99.90
40123;DHT22;25832;45.490;4.912;2022-09-14T06:30:34;20.30;99.90
40123;DHT22;25832;45.490;4.912;2022-09-14T06:33:00;20.30;99.90
40123;DHT22;25832;45.490;4.912;2022-09-14T06:35:29;20.20;99.90
40123;DHT22;25832;45.490;4.912;2022-09-14T06:37:54;20.10;99.90
40123;DHT22;25832;45.490;4.912;2022-09-14T06:40:20;20.10;99.90
40123;DHT22;25832;45.490;4.912;2022-09-14T06:42:45;20.10;99.90
40123;DHT22;25832;45.490;4.912;2022-09-14T06:45:11;20.00;99.90
40123;DHT22;25832;45.490;4.912;2022-09-14T06:47:37;20.00;99.90
40123;DHT22;25832;45.490;4.912;2022-09-14T06:50:02;19.90;99.90
40123;DHT22;25832;45.490;4.912;2022-09-14T06:52:28;19.90;99.90
40123;DHT22;25832;45.490;4.912;2022-09-14T06:54:54;20.00;99.90
40123;DHT22;25832;45.490;4.912;2022-09-14T06:57:19;19.90;99.90
40123;DHT22;25832;45.490;4.912;2022-09-14T06:59:45;19.90;99.90
40123;DHT22;25832;45.490;4.912;2022-09-14T07:02:12;19.90;99.90
40123;DHT22;25832;45.490;4.912;2022-09-14T07:04:38;19.80;99.90
40123;DHT22;25832;45.490;4.912;2022-09-14T07:07:04;19.80;99.90
40123;DHT22;25832;45.490;4.912;2022-09-14T07:09:30;19.80;99.90
40123;DHT22;25832;45.490;4.912;2022-09-14T07:11:56;19.80;99.90
40123;DHT22;25832;45.490;4.912;2022-09-14T07:14:22;19.80;99.90
40123;DHT22;25832;45.490;4.912;2022-09-14T07:16:47;19.70;99.90
40123;DHT22;25832;45.490;4.912;2022-09-14T07:19:14;19.70;99.90
40123;DHT22;25832;45.490;4.912;2022-09-14T07:21:40;19.70;99.90
40123;DHT22;25832;45.490;4.912;2022-09-14T07:24:06;19.60;99.90
40123;DHT22;25832;45.490;4.912;2022-09-14T07:26:37;19.60;99.90
40123;DHT22;25832;45.490;4.912;2022-09-14T07:29:06;19.60;99.90
40123;DHT22;25832;45.490;4.912;2022-09-14T07:31:36;19.60;99.90
40123;DHT22;25832;45.490;4.912;2022-09-14T07:34:03;19.60;99.90
40123;DHT22;25832;45.490;4.912;2022-09-14T07:36:31;19.70;99.90
40123;DHT22;25832;45.490;4.912;2022-09-14T07:38:57;19.70;99.90
40123;DHT22;25832;45.490;4.912;2022-09-14T07:41:26;19.70;99.90
40123;DHT22;25832;45.490;4.912;2022-09-14T07:43:53;19.70;99.90
40123;DHT22;25832;45.490;4.912;2022-09-14T07:46:20;19.70;99.90
40123;DHT22;25832;45.490;4.912;2022-09-14T07:48:46;19.80;99.90
40123;DHT22;25832;45.490;4.912;2022-09-14T07:51:13;19.80;99.90
40123;DHT22;25832;45.490;4.912;2022-09-14T07:53:41;19.80;99.90
40123;DHT22;25832;45.490;4.912;2022-09-14T07:56:08;19.80;99.90
40123;DHT22;25832;45.490;4.912;2022-09-14T07:58:34;19.90;99.90
40123;DHT22;25832;45.490;4.912;2022-09-14T08:01:02;19.90;99.90
40123;DHT22;25832;45.490;4.912;2022-09-14T08:03:28;19.90;99.90
40123;DHT22;25832;45.490;4.912;2022-09-14T08:06:05;20.00;99.90
40123;DHT22;25832;45.490;4.912;2022-09-14T08:08:33;19.90;99.90
40123;DHT22;25832;45.490;4.912;2022-09-14T08:11:12;20.00;99.90
40123;DHT22;25832;45.490;4.912;2022-09-14T08:13:43;20.00;99.90
40123;DHT22;25832;45.490;4.912;2022-09-14T08:16:09;20.10;99.90
40123;DHT22;25832;45.490;4.912;2022-09-14T08:18:36;20.10;99.90
40123;DHT22;25832;45.490;4.912;2022-09-14T08:21:06;20.20;99.90
40123;DHT22;25832;45.490;4.912;2022-09-14T08:23:33;20.20;99.90
40123;DHT22;25832;45.490;4.912;2022-09-14T08:26:10;20.30;99.90
40123;DHT22;25832;45.490;4.912;2022-09-14T08:28:36;20.30;99.90
40123;DHT22;25832;45.490;4.912;2022-09-14T08:31:07;20.50;99.90
40123;DHT22;25832;45.490;4.912;2022-09-14T08:33:35;20.70;99.90
40123;DHT22;25832;45.490;4.912;2022-09-14T08:36:01;20.80;99.90
40123;DHT22;25832;45.490;4.912;2022-09-14T08:38:27;20.90;99.90
40123;DHT22;25832;45.490;4.912;2022-09-14T08:40:53;21.10;99.90
40123;DHT22;25832;45.490;4.912;2022-09-14T08:43:21;21.20;99.90
40123;DHT22;25832;45.490;4.912;2022-09-14T08:45:49;21.30;99.90
40123;DHT22;25832;45.490;4.912;2022-09-14T08:48:24;21.40;99.90
40123;DHT22;25832;45.490;4.912;2022-09-14T08:50:51;21.60;99.90
40123;DHT22;25832;45.490;4.912;2022-09-14T08:53:21;21.60;99.90
40123;DHT22;25832;45.490;4.912;2022-09-14T08:55:50;21.70;99.90
40123;DHT22;25832;45.490;4.912;2022-09-14T09:01:06;21.90;99.90
40123;DHT22;25832;45.490;4.912;2022-09-14T09:06:15;22.10;99.90
40123;DHT22;25832;45.490;4.912;2022-09-14T09:11:17;22.40;99.90
40123;DHT22;25832;45.490;4.912;2022-09-14T09:13:45;22.50;99.90
40123;DHT22;25832;45.490;4.912;2022-09-14T09:16:16;22.70;99.90
40123;DHT22;25832;45.490;4.912;2022-09-14T09:18:44;22.90;99.90
40123;DHT22;25832;45.490;4.912;2022-09-14T09:21:22;23.00;99.90
40123;DHT22;25832;45.490;4.912;2022-09-14T09:23:48;23.10;99.90
40123;DHT22;25832;45.490;4.912;2022-09-14T09:28:52;23.30;99.90
40123;DHT22;25832;45.490;4.912;2022-09-14T09:31:25;23.40;99.90
40123;DHT22;25832;45.490;4.912;2022-09-14T09:33:52;23.40;99.90
40123;DHT22;25832;45.490;4.912;2022-09-14T09:36:17;23.50;99.90
40123;DHT22;25832;45.490;4.912;2022-09-14T09:38:44;23.50;99.90
40123;DHT22;25832;45.490;4.912;2022-09-14T09:44:01;23.70;99.90
40123;DHT22;25832;45.490;4.912;2022-09-14T09:47:16;23.90;99.90
40123;DHT22;25832;45.490;4.912;2022-09-14T09:51:43;24.10;99.90
40123;DHT22;25832;45.490;4.912;2022-09-14T10:02:28;24.40;99.90
40123;DHT22;25832;45.490;4.912;2022-09-14T10:07:38;24.40;99.90
40123;DHT22;25832;45.490;4.912;2022-09-14T10:10:09;24.50;99.90
40123;DHT22;25832;45.490;4.912;2022-09-14T10:12:37;24.50;99.90
40123;DHT22;25832;45.490;4.912;2022-09-14T10:15:24;24.40;99.90
40123;DHT22;25832;45.490;4.912;2022-09-14T10:21:04;24.40;99.90
40123;DHT22;25832;45.490;4.912;2022-09-14T10:23:33;24.50;99.90
40123;DHT22;25832;45.490;4.912;2022-09-14T10:28:40;24.60;99.90
40123;DHT22;25832;45.490;4.912;2022-09-14T10:33:49;24.70;99.90
40123;DHT22;25832;45.490;4.912;2022-09-14T10:50:27;25.10;99.90
40123;DHT22;25832;45.490;4.912;2022-09-14T10:53:38;25.20;99.90
40123;DHT22;25832;45.490;4.912;2022-09-14T11:07:01;25.60;98.80
40123;DHT22;25832;45.490;4.912;2022-09-14T11:09:37;25.50;98.80
40123;DHT22;25832;45.490;4.912;2022-09-14T11:15:40;25.70;98.10
40123;DHT22;25832;45.490;4.912;2022-09-14T11:28:56;25.90;95.60
40123;DHT22;25832;45.490;4.912;2022-09-14T11:31:49;25.90;95.30
40123;DHT22;25832;45.490;4.912;2022-09-14T11:34:20;26.10;95.50
40123;DHT22;25832;45.490;4.912;2022-09-14T11:36:51;26.20;95.00
40123;DHT22;25832;45.490;4.912;2022-09-14T11:39:31;26.40;95.00
40123;DHT22;25832;45.490;4.912;2022-09-14T11:44:39;26.70;95.00
40123;DHT22;25832;45.490;4.912;2022-09-14T11:47:19;26.90;94.40
40123;DHT22;25832;45.490;4.912;2022-09-14T11:52:29;27.20;94.00
40123;DHT22;25832;45.490;4.912;2022-09-14T11:54:55;27.20;94.00
40123;DHT22;25832;45.490;4.912;2022-09-14T11:57:28;27.30;93.40
40123;DHT22;25832;45.490;4.912;2022-09-14T11:59:59;27.30;94.30
40123;DHT22;25832;45.490;4.912;2022-09-14T12:12:41;26.90;94.00
40123;DHT22;25832;45.490;4.912;2022-09-14T12:15:33;26.80;93.90
40123;DHT22;25832;45.490;4.912;2022-09-14T12:28:37;26.60;94.50
40123;DHT22;25832;45.490;4.912;2022-09-14T12:49:02;26.30;94.10
40123;DHT22;25832;45.490;4.912;2022-09-14T13:01:53;26.20;94.90
40123;DHT22;25832;45.490;4.912;2022-09-14T13:04:24;26.30;94.90
40123;DHT22;25832;45.490;4.912;2022-09-14T13:06:51;26.30;95.00
40123;DHT22;25832;45.490;4.912;2022-09-14T13:09:25;26.40;95.30
40123;DHT22;25832;45.490;4.912;2022-09-14T13:12:06;26.50;95.00
40123;DHT22;25832;45.490;4.912;2022-09-14T13:14:42;26.60;94.80
40123;DHT22;25832;45.490;4.912;2022-09-14T13:17:13;26.80;95.20
40123;DHT22;25832;45.490;4.912;2022-09-14T13:19:39;26.90;94.60
40123;DHT22;25832;45.490;4.912;2022-09-14T13:22:20;26.90;94.40
40123;DHT22;25832;45.490;4.912;2022-09-14T13:24:47;26.80;94.60
40123;DHT22;25832;45.490;4.912;2022-09-14T13:27:29;26.70;94.50
40123;DHT22;25832;45.490;4.912;2022-09-14T13:30:22;26.60;94.40
40123;DHT22;25832;45.490;4.912;2022-09-14T13:32:49;26.40;94.80
40123;DHT22;25832;45.490;4.912;2022-09-14T13:35:34;26.20;94.80
40123;DHT22;25832;45.490;4.912;2022-09-14T13:38:16;26.20;95.10
40123;DHT22;25832;45.490;4.912;2022-09-14T13:40:43;26.00;95.30
40123;DHT22;25832;45.490;4.912;2022-09-14T13:43:10;26.00;95.50
40123;DHT22;25832;45.490;4.912;2022-09-14T13:45:35;26.00;95.60
40123;DHT22;25832;45.490;4.912;2022-09-14T13:48:04;26.00;95.50
40123;DHT22;25832;45.490;4.912;2022-09-14T13:50:30;26.00;95.70
40123;DHT22;25832;45.490;4.912;2022-09-14T13:52:55;25.90;96.10
40123;DHT22;25832;45.490;4.912;2022-09-14T13:55:28;25.90;96.00
40123;DHT22;25832;45.490;4.912;2022-09-14T13:58:13;26.00;96.00
40123;DHT22;25832;45.490;4.912;2022-09-14T14:00:57;26.10;95.80
40123;DHT22;25832;45.490;4.912;2022-09-14T14:03:35;26.20;96.10
40123;DHT22;25832;45.490;4.912;2022-09-14T14:06:16;26.50;96.30
40123;DHT22;25832;45.490;4.912;2022-09-14T14:08:43;26.60;95.40
40123;DHT22;25832;45.490;4.912;2022-09-14T14:11:09;26.70;95.70
40123;DHT22;25832;45.490;4.912;2022-09-14T14:13:36;26.70;95.00
40123;DHT22;25832;45.490;4.912;2022-09-14T14:16:16;26.70;95.40
40123;DHT22;25832;45.490;4.912;2022-09-14T14:18:48;26.70;95.80
40123;DHT22;25832;45.490;4.912;2022-09-14T14:23:46;26.60;95.50
40123;DHT22;25832;45.490;4.912;2022-09-14T14:26:15;26.60;95.60
40123;DHT22;25832;45.490;4.912;2022-09-14T14:28:42;26.70;95.70
40123;DHT22;25832;45.490;4.912;2022-09-14T14:31:13;26.70;95.80
40123;DHT22;25832;45.490;4.912;2022-09-14T14:33:51;26.60;95.60
40123;DHT22;25832;45.490;4.912;2022-09-14T14:36:18;26.50;95.60
40123;DHT22;25832;45.490;4.912;2022-09-14T14:38:44;26.50;96.10
40123;DHT22;25832;45.490;4.912;2022-09-14T14:41:15;26.50;96.50
40123;DHT22;25832;45.490;4.912;2022-09-14T14:43:42;26.30;95.70
40123;DHT22;25832;45.490;4.912;2022-09-14T14:46:11;26.30;95.60
40123;DHT22;25832;45.490;4.912;2022-09-14T14:48:37;26.20;95.30
40123;DHT22;25832;45.490;4.912;2022-09-14T14:51:03;26.10;95.80
40123;DHT22;25832;45.490;4.912;2022-09-14T14:53:29;26.00;96.10
40123;DHT22;25832;45.490;4.912;2022-09-14T14:55:55;25.80;96.00
40123;DHT22;25832;45.490;4.912;2022-09-14T14:58:21;25.70;96.50
40123;DHT22;25832;45.490;4.912;2022-09-14T15:00:48;25.60;96.60
40123;DHT22;25832;45.490;4.912;2022-09-14T15:03:14;25.40;96.70
40123;DHT22;25832;45.490;4.912;2022-09-14T15:05:43;25.40;97.20
40123;DHT22;25832;45.490;4.912;2022-09-14T15:08:11;25.30;96.70
40123;DHT22;25832;45.490;4.912;2022-09-14T15:10:37;25.30;96.90
40123;DHT22;25832;45.490;4.912;2022-09-14T15:13:04;25.30;96.90
40123;DHT22;25832;45.490;4.912;2022-09-14T15:15:30;25.30;96.70
40123;DHT22;25832;45.490;4.912;2022-09-14T15:17:56;25.30;96.80
40123;DHT22;25832;45.490;4.912;2022-09-14T15:20:22;25.20;96.80
40123;DHT22;25832;45.490;4.912;2022-09-14T15:22:48;25.10;97.10
40123;DHT22;25832;45.490;4.912;2022-09-14T15:25:15;25.10;97.20
40123;DHT22;25832;45.490;4.912;2022-09-14T15:27:41;25.10;97.10
40123;DHT22;25832;45.490;4.912;2022-09-14T15:30:08;25.00;97.40
40123;DHT22;25832;45.490;4.912;2022-09-14T15:32:34;25.00;97.50
40123;DHT22;25832;45.490;4.912;2022-09-14T15:35:00;24.90;97.40
40123;DHT22;25832;45.490;4.912;2022-09-14T15:37:25;24.90;97.60
40123;DHT22;25832;45.490;4.912;2022-09-14T15:39:51;24.90;97.60
40123;DHT22;25832;45.490;4.912;2022-09-14T15:42:17;24.90;97.60
40123;DHT22;25832;45.490;4.912;2022-09-14T15:44:43;24.90;97.50
40123;DHT22;25832;45.490;4.912;2022-09-14T15:47:11;24.90;97.80
40123;DHT22;25832;45.490;4.912;2022-09-14T15:49:37;24.90;97.70
40123;DHT22;25832;45.490;4.912;2022-09-14T15:52:03;24.90;97.70
40123;DHT22;25832;45.490;4.912;2022-09-14T15:54:33;25.00;97.70
40123;DHT22;25832;45.490;4.912;2022-09-14T15:56:59;25.00;97.70
40123;DHT22;25832;45.490;4.912;2022-09-14T15:59:26;25.00;97.40
40123;DHT22;25832;45.490;4.912;2022-09-14T16:01:52;25.10;97.80
40123;DHT22;25832;45.490;4.912;2022-09-14T16:04:18;25.10;97.60
40123;DHT22;25832;45.490;4.912;2022-09-14T16:06:45;25.10;97.50
40123;DHT22;25832;45.490;4.912;2022-09-14T16:09:12;25.10;97.90
40123;DHT22;25832;45.490;4.912;2022-09-14T16:11:39;25.10;98.00
40123;DHT22;25832;45.490;4.912;2022-09-14T16:14:06;25.20;97.70
40123;DHT22;25832;45.490;4.912;2022-09-14T16:16:32;25.20;97.70
40123;DHT22;25832;45.490;4.912;2022-09-14T16:19:04;25.30;97.80
40123;DHT22;25832;45.490;4.912;2022-09-14T16:21:30;25.30;97.70
40123;DHT22;25832;45.490;4.912;2022-09-14T16:24:00;25.40;97.70
40123;DHT22;25832;45.490;4.912;2022-09-14T16:26:30;25.40;97.50
40123;DHT22;25832;45.490;4.912;2022-09-14T16:28:57;25.60;97.60
40123;DHT22;25832;45.490;4.912;2022-09-14T16:31:28;25.60;97.70
40123;DHT22;25832;45.490;4.912;2022-09-14T16:33:57;25.70;97.40
40123;DHT22;25832;45.490;4.912;2022-09-14T16:36:28;25.70;97.50
40123;DHT22;25832;45.490;4.912;2022-09-14T16:38:56;25.70;97.00
40123;DHT22;25832;45.490;4.912;2022-09-14T16:41:22;25.70;97.30
40123;DHT22;25832;45.490;4.912;2022-09-14T16:43:56;25.60;97.30
40123;DHT22;25832;45.490;4.912;2022-09-14T16:46:23;25.40;97.60
40123;DHT22;25832;45.490;4.912;2022-09-14T16:48:49;25.30;97.60
40123;DHT22;25832;45.490;4.912;2022-09-14T16:51:17;25.10;97.90
40123;DHT22;25832;45.490;4.912;2022-09-14T16:53:44;25.00;98.10
40123;DHT22;25832;45.490;4.912;2022-09-14T16:56:13;24.90;98.10
40123;DHT22;25832;45.490;4.912;2022-09-14T16:58:39;24.80;98.20
40123;DHT22;25832;45.490;4.912;2022-09-14T17:03:39;24.60;98.10
40123;DHT22;25832;45.490;4.912;2022-09-14T17:06:07;24.60;98.20
40123;DHT22;25832;45.490;4.912;2022-09-14T17:08:34;24.50;98.10
40123;DHT22;25832;45.490;4.912;2022-09-14T17:11:01;24.50;98.30
40123;DHT22;25832;45.490;4.912;2022-09-14T17:13:29;24.40;98.30
40123;DHT22;25832;45.490;4.912;2022-09-14T17:16:05;24.40;98.30
40123;DHT22;25832;45.490;4.912;2022-09-14T17:18:33;24.30;98.30
40123;DHT22;25832;45.490;4.912;2022-09-14T17:21:01;24.30;98.40
40123;DHT22;25832;45.490;4.912;2022-09-14T17:23:27;24.20;98.50
40123;DHT22;25832;45.490;4.912;2022-09-14T17:25:54;24.10;98.70
40123;DHT22;25832;45.490;4.912;2022-09-14T17:28:22;24.10;98.70
40123;DHT22;25832;45.490;4.912;2022-09-14T17:30:52;24.10;98.90
40123;DHT22;25832;45.490;4.912;2022-09-14T17:33:19;24.00;99.00
40123;DHT22;25832;45.490;4.912;2022-09-14T17:35:49;23.90;99.20
40123;DHT22;25832;45.490;4.912;2022-09-14T17:38:15;23.90;99.50
40123;DHT22;25832;45.490;4.912;2022-09-14T17:40:42;23.80;99.60
40123;DHT22;25832;45.490;4.912;2022-09-14T17:43:08;23.80;99.70
40123;DHT22;25832;45.490;4.912;2022-09-14T17:45:34;23.80;99.90
40123;DHT22;25832;45.490;4.912;2022-09-14T17:47:59;23.80;99.90
40123;DHT22;25832;45.490;4.912;2022-09-14T17:50:25;23.80;99.90
40123;DHT22;25832;45.490;4.912;2022-09-14T17:52:51;23.70;99.90
40123;DHT22;25832;45.490;4.912;2022-09-14T17:55:17;23.60;99.90
40123;DHT22;25832;45.490;4.912;2022-09-14T17:57:43;23.60;99.90
40123;DHT22;25832;45.490;4.912;2022-09-14T18:00:10;23.50;99.90
40123;DHT22;25832;45.490;4.912;2022-09-14T18:02:36;23.50;99.90
40123;DHT22;25832;45.490;4.912;2022-09-14T18:05:02;23.50;99.90
40123;DHT22;25832;45.490;4.912;2022-09-14T18:07:28;23.40;99.90
40123;DHT22;25832;45.490;4.912;2022-09-14T18:09:55;23.30;97.50
40123;DHT22;25832;45.490;4.912;2022-09-14T18:12:21;23.00;95.30
40123;DHT22;25832;45.490;4.912;2022-09-14T18:14:47;22.70;96.00
40123;DHT22;25832;45.490;4.912;2022-09-14T18:17:13;22.60;95.60
40123;DHT22;25832;45.490;4.912;2022-09-14T18:19:39;22.40;95.70
40123;DHT22;25832;45.490;4.912;2022-09-14T18:22:05;22.20;96.20
40123;DHT22;25832;45.490;4.912;2022-09-14T18:24:30;21.70;98.50
40123;DHT22;25832;45.490;4.912;2022-09-14T18:26:57;21.10;99.90
40123;DHT22;25832;45.490;4.912;2022-09-14T18:29:23;20.60;99.90
40123;DHT22;25832;45.490;4.912;2022-09-14T18:31:53;20.20;99.90
40123;DHT22;25832;45.490;4.912;2022-09-14T18:34:19;19.90;99.90
40123;DHT22;25832;45.490;4.912;2022-09-14T18:36:45;19.60;99.90